sensor_id;sensor_type;location;lat;lon;timestamp;pressure;altitude;pressure_sealevel;temperature;humidity
74103;BME280;62853;46.166;3.640;2024-03-17T00:00:20;102180.22;;;11.16;100.00
74103;BME280;62853;46.166;3.640;2024-03-17T00:02:45;102180.31;;;11.13;100.00
74103;BME280;62853;46.166;3.640;2024-03-17T00:05:11;102176.84;;;11.12;100.00
74103;BME280;62853;46.166;3.640;2024-03-17T00:07:38;102175.97;;;11.12;100.00
74103;BME280;62853;46.166;3.640;2024-03-17T00:10:04;102167.22;;;11.11;100.00
74103;BME280;62853;46.166;3.640;2024-03-17T00:12:29;102163.69;;;11.11;100.00
74103;BME280;62853;46.166;3.640;2024-03-17T00:14:55;102164.69;;;11.08;100.00
74103;BME280;62853;46.166;3.640;2024-03-17T00:17:20;102158.47;;;11.09;100.00
74103;BME280;62853;46.166;3.640;2024-03-17T00:19:49;102165.59;;;11.07;100.00
74103;BME280;62853;46.166;3.640;2024-03-17T00:22:14;102161.16;;;11.08;100.00
74103;BME280;62853;46.166;3.640;2024-03-17T00:24:40;102153.31;;;11.06;100.00
74103;BME280;62853;46.166;3.640;2024-03-17T00:27:07;102160.38;;;11.06;100.00
74103;BME280;62853;46.166;3.640;2024-03-17T00:29:33;102163.94;;;11.05;100.00
74103;BME280;62853;46.166;3.640;2024-03-17T00:31:58;102155.16;;;11.04;100.00
74103;BME280;62853;46.166;3.640;2024-03-17T00:34:24;102160.38;;;11.06;100.00
74103;BME280;62853;46.166;3.640;2024-03-17T00:36:49;102152.50;;;11.04;100.00
74103;BME280;62853;46.166;3.640;2024-03-17T00:39:17;102159.56;;;11.04;100.00
74103;BME280;62853;46.166;3.640;2024-03-17T00:41:43;102163.09;;;11.03;100.00
74103;BME280;62853;46.166;3.640;2024-03-17T00:44:08;102159.66;;;11.01;100.00
74103;BME280;62853;46.166;3.640;2024-03-17T00:46:34;102160.53;;;11.01;100.00
74103;BME280;62853;46.166;3.640;2024-03-17T00:48:59;102158.81;;;11.00;100.00
74103;BME280;62853;46.166;3.640;2024-03-17T00:51:27;102149.13;;;11.01;100.00
74103;BME280;62853;46.166;3.640;2024-03-17T00:53:53;102146.53;;;10.99;100.00
74103;BME280;62853;46.166;3.640;2024-03-17T00:56:18;102150.97;;;10.98;100.00
74103;BME280;62853;46.166;3.640;2024-03-17T00:58:44;102150.13;;;10.98;100.00
74103;BME280;62853;46.166;3.640;2024-03-17T01:01:12;102143.97;;;10.97;100.00
74103;BME280;62853;46.166;3.640;2024-03-17T01:03:37;102145.75;;;10.97;100.00
74103;BME280;62853;46.166;3.640;2024-03-17T01:06:04;102148.38;;;10.97;100.00
74103;BME280;62853;46.166;3.640;2024-03-17T01:08:29;102145.75;;;10.97;100.00
74103;BME280;62853;46.166;3.640;2024-03-17T01:10:55;102139.63;;;10.96;100.00
74103;BME280;62853;46.166;3.640;2024-03-17T01:13:20;102136.16;;;10.94;100.00
74103;BME280;62853;46.166;3.640;2024-03-17T01:15:51;102134.44;;;10.93;100.00
74103;BME280;62853;46.166;3.640;2024-03-17T01:18:17;102130.97;;;10.93;100.00
74103;BME280;62853;46.166;3.640;2024-03-17T01:20:44;102123.09;;;10.91;100.00
74103;BME280;62853;46.166;3.640;2024-03-17T01:23:09;102121.38;;;10.90;100.00
74103;BME280;62853;46.166;3.640;2024-03-17T01:25:35;102114.38;;;10.89;100.00
74103;BME280;62853;46.166;3.640;2024-03-17T01:28:04;102111.88;;;10.86;100.00
74103;BME280;62853;46.166;3.640;2024-03-17T01:30:29;102119.81;;;10.85;100.00
74103;BME280;62853;46.166;3.640;2024-03-17T01:32:55;102111.09;;;10.83;100.00
74103;BME280;62853;46.166;3.640;2024-03-17T01:35:20;102112.03;;;10.82;100.00
74103;BME280;62853;46.166;3.640;2024-03-17T01:37:46;102104.16;;;10.80;100.00
74103;BME280;62853;46.166;3.640;2024-03-17T01:40:12;102104.16;;;10.80;100.00
74103;BME280;62853;46.166;3.640;2024-03-17T01:42:38;102102.50;;;10.77;100.00
74103;BME280;62853;46.166;3.640;2024-03-17T01:45:26;102091.16;;;10.75;100.00
74103;BME280;62853;46.166;3.640;2024-03-17T01:47:53;102094.72;;;10.74;100.00
74103;BME280;62853;46.166;3.640;2024-03-17T01:50:19;102104.38;;;10.74;100.00
74103;BME280;62853;46.166;3.640;2024-03-17T01:52:51;102104.38;;;10.74;100.00
74103;BME280;62853;46.166;3.640;2024-03-17T01:55:17;102096.53;;;10.72;100.00
74103;BME280;62853;46.166;3.640;2024-03-17T01:57:42;102101.78;;;10.72;100.00
74103;BME280;62853;46.166;3.640;2024-03-17T02:00:08;102102.69;;;10.73;100.00
74103;BME280;62853;46.166;3.640;2024-03-17T02:02:34;102091.38;;;10.69;100.00
74103;BME280;62853;46.166;3.640;2024-03-17T02:05:01;102088.63;;;10.72;100.00
74103;BME280;62853;46.166;3.640;2024-03-17T02:07:28;102086.91;;;10.71;100.00
74103;BME280;62853;46.166;3.640;2024-03-17T02:09:53;102085.19;;;10.70;100.00
74103;BME280;62853;46.166;3.640;2024-03-17T02:12:18;102086.03;;;10.71;100.00
74103;BME280;62853;46.166;3.640;2024-03-17T02:14:44;102089.56;;;10.71;100.00
74103;BME280;62853;46.166;3.640;2024-03-17T02:17:09;102085.97;;;10.72;100.00
74103;BME280;62853;46.166;3.640;2024-03-17T02:19:36;102090.34;;;10.73;100.00
74103;BME280;62853;46.166;3.640;2024-03-17T02:22:01;102084.22;;;10.73;100.00
74103;BME280;62853;46.166;3.640;2024-03-17T02:24:26;102086.88;;;10.73;100.00
74103;BME280;62853;46.166;3.640;2024-03-17T02:26:52;102075.38;;;10.74;100.00
74103;BME280;62853;46.166;3.640;2024-03-17T02:29:17;102070.13;;;10.74;100.00
74103;BME280;62853;46.166;3.640;2024-03-17T02:31:42;102072.69;;;10.75;100.00
74103;BME280;62853;46.166;3.640;2024-03-17T02:34:08;102070.94;;;10.76;100.00
74103;BME280;62853;46.166;3.640;2024-03-17T02:36:33;102070.06;;;10.75;100.00
74103;BME280;62853;46.166;3.640;2024-03-17T02:38:58;102058.63;;;10.76;100.00
74103;BME280;62853;46.166;3.640;2024-03-17T02:41:43;102056.00;;;10.76;100.00
74103;BME280;62853;46.166;3.640;2024-03-17T02:44:09;102054.19;;;10.77;100.00
74103;BME280;62853;46.166;3.640;2024-03-17T02:46:36;102054.19;;;10.77;100.00
74103;BME280;62853;46.166;3.640;2024-03-17T02:49:01;102048.88;;;10.78;100.00
74103;BME280;62853;46.166;3.640;2024-03-17T02:51:27;102047.97;;;10.79;100.00
74103;BME280;62853;46.166;3.640;2024-03-17T02:53:52;102053.19;;;10.81;100.00
74103;BME280;62853;46.166;3.640;2024-03-17T02:56:18;102056.72;;;10.80;100.00
74103;BME280;62853;46.166;3.640;2024-03-17T02:58:45;102059.41;;;10.78;100.00
74103;BME280;62853;46.166;3.640;2024-03-17T03:01:15;102072.59;;;10.78;100.00
74103;BME280;62853;46.166;3.640;2024-03-17T03:03:41;102063.91;;;10.76;100.00
74103;BME280;62853;46.166;3.640;2024-03-17T03:06:06;102055.06;;;10.77;100.00
74103;BME280;62853;46.166;3.640;2024-03-17T03:08:41;102064.75;;;10.77;100.00
74103;BME280;62853;46.166;3.640;2024-03-17T03:11:08;102058.63;;;10.76;100.00
74103;BME280;62853;46.166;3.640;2024-03-17T03:13:37;102056.00;;;10.76;100.00
74103;BME280;62853;46.166;3.640;2024-03-17T03:16:04;102059.47;;;10.77;100.00
74103;BME280;62853;46.166;3.640;2024-03-17T03:18:30;102053.31;;;10.78;100.00
74103;BME280;62853;46.166;3.640;2024-03-17T03:20:55;102057.69;;;10.77;100.00
74103;BME280;62853;46.166;3.640;2024-03-17T03:23:20;102058.56;;;10.78;100.00
74103;BME280;62853;46.166;3.640;2024-03-17T03:25:46;102056.78;;;10.78;100.00
74103;BME280;62853;46.166;3.640;2024-03-17T03:28:15;102042.75;;;10.78;100.00
74103;BME280;62853;46.166;3.640;2024-03-17T03:30:41;102043.66;;;10.77;100.00
74103;BME280;62853;46.166;3.640;2024-03-17T03:33:06;102042.81;;;10.76;100.00
74103;BME280;62853;46.166;3.640;2024-03-17T03:35:32;102049.78;;;10.77;100.00
74103;BME280;62853;46.166;3.640;2024-03-17T03:37:58;102035.75;;;10.77;100.00
74103;BME280;62853;46.166;3.640;2024-03-17T03:40:26;102034.06;;;10.76;100.00
74103;BME280;62853;46.166;3.640;2024-03-17T03:42:52;102034.06;;;10.76;100.00
74103;BME280;62853;46.166;3.640;2024-03-17T03:45:18;102025.28;;;10.75;100.00
74103;BME280;62853;46.166;3.640;2024-03-17T03:47:43;102035.81;;;10.75;100.00
74103;BME280;62853;46.166;3.640;2024-03-17T03:50:10;102027.91;;;10.75;100.00
74103;BME280;62853;46.166;3.640;2024-03-17T03:52:38;102021.78;;;10.75;100.00
74103;BME280;62853;46.166;3.640;2024-03-17T03:55:06;102016.50;;;10.75;100.00
74103;BME280;62853;46.166;3.640;2024-03-17T03:57:33;102015.66;;;10.74;100.00
74103;BME280;62853;46.166;3.640;2024-03-17T03:59:59;102010.41;;;10.74;100.00
74103;BME280;62853;46.166;3.640;2024-03-17T04:02:25;102013.03;;;10.74;100.00
74103;BME280;62853;46.166;3.640;2024-03-17T04:04:56;102019.19;;;10.73;100.00
74103;BME280;62853;46.166;3.640;2024-03-17T04:07:21;102006.09;;;10.72;100.00
74103;BME280;62853;46.166;3.640;2024-03-17T04:09:47;102000.81;;;10.72;100.00
74103;BME280;62853;46.166;3.640;2024-03-17T04:12:12;101999.16;;;10.69;100.00
74103;BME280;62853;46.166;3.640;2024-03-17T04:14:37;101997.44;;;10.68;100.00
74103;BME280;62853;46.166;3.640;2024-03-17T04:17:03;101998.34;;;10.67;100.00
74103;BME280;62853;46.166;3.640;2024-03-17T04:19:29;101997.47;;;10.67;100.00
74103;BME280;62853;46.166;3.640;2024-03-17T04:21:54;101984.38;;;10.65;100.00
74103;BME280;62853;46.166;3.640;2024-03-17T04:24:19;101989.69;;;10.64;100.00
74103;BME280;62853;46.166;3.640;2024-03-17T04:26:45;101994.97;;;10.64;100.00
74103;BME280;62853;46.166;3.640;2024-03-17T04:29:10;101983.56;;;10.63;100.00
74103;BME280;62853;46.166;3.640;2024-03-17T04:31:35;101986.22;;;10.63;100.00
74103;BME280;62853;46.166;3.640;2024-03-17T04:34:01;101984.53;;;10.60;100.00
74103;BME280;62853;46.166;3.640;2024-03-17T04:36:26;101985.41;;;10.61;100.00
74103;BME280;62853;46.166;3.640;2024-03-17T04:38:52;101984.53;;;10.60;100.00
74103;BME280;62853;46.166;3.640;2024-03-17T04:41:19;101978.41;;;10.60;100.00
74103;BME280;62853;46.166;3.640;2024-03-17T04:43:44;101980.19;;;10.59;100.00
74103;BME280;62853;46.166;3.640;2024-03-17T04:46:10;101978.47;;;10.58;100.00
74103;BME280;62853;46.166;3.640;2024-03-17T04:48:37;101979.31;;;10.59;100.00
74103;BME280;62853;46.166;3.640;2024-03-17T04:51:03;101985.50;;;10.58;100.00
74103;BME280;62853;46.166;3.640;2024-03-17T04:53:29;101979.41;;;10.57;100.00
74103;BME280;62853;46.166;3.640;2024-03-17T04:56:01;101982.03;;;10.57;100.00
74103;BME280;62853;46.166;3.640;2024-03-17T04:58:27;101968.91;;;10.56;100.00
74103;BME280;62853;46.166;3.640;2024-03-17T05:00:53;101975.94;;;10.55;100.00
74103;BME280;62853;46.166;3.640;2024-03-17T05:03:18;101986.53;;;10.54;100.00
74103;BME280;62853;46.166;3.640;2024-03-17T05:05:43;101982.19;;;10.53;100.00
74103;BME280;62853;46.166;3.640;2024-03-17T05:08:09;101982.25;;;10.51;100.00
74103;BME280;62853;46.166;3.640;2024-03-17T05:10:34;101976.13;;;10.51;100.00
74103;BME280;62853;46.166;3.640;2024-03-17T05:12:59;101972.59;;;10.50;100.00
74103;BME280;62853;46.166;3.640;2024-03-17T05:15:25;101967.41;;;10.49;100.00
74103;BME280;62853;46.166;3.640;2024-03-17T05:17:50;101963.06;;;10.48;100.00
74103;BME280;62853;46.166;3.640;2024-03-17T05:20:16;101971.88;;;10.47;100.00
74103;BME280;62853;46.166;3.640;2024-03-17T05:22:41;101976.28;;;10.46;100.00
74103;BME280;62853;46.166;3.640;2024-03-17T05:25:07;101962.25;;;10.46;100.00
74103;BME280;62853;46.166;3.640;2024-03-17T05:27:33;101964.94;;;10.44;100.00
74103;BME280;62853;46.166;3.640;2024-03-17T05:29:58;101964.13;;;10.42;100.00
74103;BME280;62853;46.166;3.640;2024-03-17T05:32:24;101965.06;;;10.41;100.00
74103;BME280;62853;46.166;3.640;2024-03-17T05:34:51;101966.75;;;10.42;100.00
74103;BME280;62853;46.166;3.640;2024-03-17T05:37:17;101962.41;;;10.41;100.00
74103;BME280;62853;46.166;3.640;2024-03-17T05:39:42;101961.53;;;10.40;100.00
74103;BME280;62853;46.166;3.640;2024-03-17T05:42:07;101959.84;;;10.39;100.00
74103;BME280;62853;46.166;3.640;2024-03-17T05:44:33;101956.34;;;10.39;100.00
74103;BME280;62853;46.166;3.640;2024-03-17T05:47:17;101950.22;;;10.38;100.00
74103;BME280;62853;46.166;3.640;2024-03-17T05:49:43;101952.91;;;10.37;100.00
74103;BME280;62853;46.166;3.640;2024-03-17T05:52:08;101954.69;;;10.36;100.00
74103;BME280;62853;46.166;3.640;2024-03-17T05:54:34;101952.16;;;10.33;100.00
74103;BME280;62853;46.166;3.640;2024-03-17T05:56:59;101953.09;;;10.31;100.00
74103;BME280;62853;46.166;3.640;2024-03-17T05:59:24;101958.44;;;10.29;100.00
74103;BME280;62853;46.166;3.640;2024-03-17T06:01:50;101959.31;;;10.28;100.00
74103;BME280;62853;46.166;3.640;2024-03-17T06:04:15;101961.06;;;10.29;100.00
74103;BME280;62853;46.166;3.640;2024-03-17T06:06:42;101968.03;;;10.30;100.00
74103;BME280;62853;46.166;3.640;2024-03-17T06:09:08;101967.16;;;10.30;100.00
74103;BME280;62853;46.166;3.640;2024-03-17T06:11:35;101974.22;;;10.29;100.00
74103;BME280;62853;46.166;3.640;2024-03-17T06:14:01;101975.13;;;10.28;100.00
74103;BME280;62853;46.166;3.640;2024-03-17T06:16:30;101982.13;;;10.29;100.00
74103;BME280;62853;46.166;3.640;2024-03-17T06:18:56;101978.59;;;10.29;100.00
74103;BME280;62853;46.166;3.640;2024-03-17T06:21:21;101973.28;;;10.30;100.00
74103;BME280;62853;46.166;3.640;2024-03-17T06:23:47;101973.28;;;10.30;100.00
74103;BME280;62853;46.166;3.640;2024-03-17T06:26:12;101978.56;;;10.30;100.00
74103;BME280;62853;46.166;3.640;2024-03-17T06:28:38;101981.19;;;10.30;100.00
74103;BME280;62853;46.166;3.640;2024-03-17T06:31:03;101979.44;;;10.31;100.00
74103;BME280;62853;46.166;3.640;2024-03-17T06:33:29;101982.97;;;10.30;100.00
74103;BME280;62853;46.166;3.640;2024-03-17T06:35:57;101976.84;;;10.29;100.00
74103;BME280;62853;46.166;3.640;2024-03-17T06:38:22;101977.66;;;10.31;100.00
74103;BME280;62853;46.166;3.640;2024-03-17T06:40:49;101975.91;;;10.30;100.00
74103;BME280;62853;46.166;3.640;2024-03-17T06:43:15;101980.25;;;10.33;100.00
74103;BME280;62853;46.166;3.640;2024-03-17T06:45:41;101978.47;;;10.33;100.00
74103;BME280;62853;46.166;3.640;2024-03-17T06:48:06;101981.06;;;10.35;100.00
74103;BME280;62853;46.166;3.640;2024-03-17T06:50:32;101982.84;;;10.34;100.00
74103;BME280;62853;46.166;3.640;2024-03-17T06:52:57;101985.47;;;10.34;100.00
74103;BME280;62853;46.166;3.640;2024-03-17T06:55:22;102001.19;;;10.37;100.00
74103;BME280;62853;46.166;3.640;2024-03-17T06:57:49;101996.72;;;10.39;100.00
74103;BME280;62853;46.166;3.640;2024-03-17T07:00:15;101983.50;;;10.41;100.00
74103;BME280;62853;46.166;3.640;2024-03-17T07:02:42;101984.28;;;10.43;100.00
74103;BME280;62853;46.166;3.640;2024-03-17T07:05:12;101985.13;;;10.43;100.00
74103;BME280;62853;46.166;3.640;2024-03-17T07:07:39;101975.47;;;10.44;100.00
74103;BME280;62853;46.166;3.640;2024-03-17T07:10:05;101966.59;;;10.47;100.00
74103;BME280;62853;46.166;3.640;2024-03-17T07:12:43;101963.84;;;10.50;100.00
74103;BME280;62853;46.166;3.640;2024-03-17T07:15:09;101954.16;;;10.50;100.00
74103;BME280;62853;46.166;3.640;2024-03-17T07:17:34;101950.56;;;10.53;100.00
74103;BME280;62853;46.166;3.640;2024-03-17T07:20:01;101948.78;;;10.53;100.00
74103;BME280;62853;46.166;3.640;2024-03-17T07:22:27;101956.69;;;10.53;100.00
74103;BME280;62853;46.166;3.640;2024-03-17T07:24:53;101958.47;;;10.53;100.00
74103;BME280;62853;46.166;3.640;2024-03-17T07:27:25;101963.75;;;10.53;100.00
74103;BME280;62853;46.166;3.640;2024-03-17T07:29:50;101963.66;;;10.56;100.00
74103;BME280;62853;46.166;3.640;2024-03-17T07:32:16;101960.88;;;10.59;100.00
74103;BME280;62853;46.166;3.640;2024-03-17T07:34:41;101959.97;;;10.60;100.00
74103;BME280;62853;46.166;3.640;2024-03-17T07:37:07;101957.28;;;10.61;100.00
74103;BME280;62853;46.166;3.640;2024-03-17T07:39:32;101965.06;;;10.65;100.00
74103;BME280;62853;46.166;3.640;2024-03-17T07:42:01;101957.13;;;10.66;100.00
74103;BME280;62853;46.166;3.640;2024-03-17T07:44:28;101956.06;;;10.70;100.00
74103;BME280;62853;46.166;3.640;2024-03-17T07:46:58;101955.13;;;10.73;100.00
74103;BME280;62853;46.166;3.640;2024-03-17T07:49:23;101960.28;;;10.76;100.00
74103;BME280;62853;46.166;3.640;2024-03-17T07:51:49;101964.59;;;10.77;100.00
74103;BME280;62853;46.166;3.640;2024-03-17T07:54:14;101957.56;;;10.77;100.00
74103;BME280;62853;46.166;3.640;2024-03-17T07:56:39;101955.78;;;10.78;100.00
74103;BME280;62853;46.166;3.640;2024-03-17T07:59:05;101958.44;;;10.78;100.00
74103;BME280;62853;46.166;3.640;2024-03-17T08:01:37;101940.84;;;10.78;100.00
74103;BME280;62853;46.166;3.640;2024-03-17T08:04:02;101940.78;;;10.80;100.00
74103;BME280;62853;46.166;3.640;2024-03-17T08:06:29;101938.19;;;10.78;100.00
74103;BME280;62853;46.166;3.640;2024-03-17T08:08:54;101935.56;;;10.78;100.00
74103;BME280;62853;46.166;3.640;2024-03-17T08:11:20;101932.81;;;10.82;100.00
74103;BME280;62853;46.166;3.640;2024-03-17T08:13:45;101939.88;;;10.81;100.00
74103;BME280;62853;46.166;3.640;2024-03-17T08:16:10;101944.16;;;10.84;100.00
74103;BME280;62853;46.166;3.640;2024-03-17T08:18:36;101949.38;;;10.85;100.00
74103;BME280;62853;46.166;3.640;2024-03-17T08:21:03;101954.63;;;10.85;100.00
74103;BME280;62853;46.166;3.640;2024-03-17T08:23:35;101951.09;;;10.86;100.00
74103;BME280;62853;46.166;3.640;2024-03-17T08:26:04;101955.38;;;10.89;100.00
74103;BME280;62853;46.166;3.640;2024-03-17T08:28:30;101951.03;;;10.88;100.00
74103;BME280;62853;46.166;3.640;2024-03-17T08:31:00;101943.13;;;10.88;100.00
74103;BME280;62853;46.166;3.640;2024-03-17T08:33:27;101948.41;;;10.88;100.00
74103;BME280;62853;46.166;3.640;2024-03-17T08:38:25;101947.53;;;10.87;100.00
74103;BME280;62853;46.166;3.640;2024-03-17T08:40:53;101951.09;;;10.86;100.00
74103;BME280;62853;46.166;3.640;2024-03-17T08:43:19;101943.13;;;10.88;100.00
74103;BME280;62853;46.166;3.640;2024-03-17T08:45:54;101941.41;;;10.87;100.00
74103;BME280;62853;46.166;3.640;2024-03-17T08:48:19;101950.16;;;10.87;100.00
74103;BME280;62853;46.166;3.640;2024-03-17T08:50:53;101945.88;;;10.85;100.00
74103;BME280;62853;46.166;3.640;2024-03-17T08:53:20;101948.47;;;10.86;100.00
74103;BME280;62853;46.166;3.640;2024-03-17T08:55:45;101947.53;;;10.87;100.00
74103;BME280;62853;46.166;3.640;2024-03-17T08:58:10;101939.66;;;10.86;100.00
74103;BME280;62853;46.166;3.640;2024-03-17T09:00:36;101940.50;;;10.88;100.00
74103;BME280;62853;46.166;3.640;2024-03-17T09:03:02;101943.94;;;10.90;100.00
74103;BME280;62853;46.166;3.640;2024-03-17T09:05:28;101937.72;;;10.91;100.00
74103;BME280;62853;46.166;3.640;2024-03-17T09:07:53;101935.91;;;10.93;100.00
74103;BME280;62853;46.166;3.640;2024-03-17T09:10:20;101937.59;;;10.94;100.00
74103;BME280;62853;46.166;3.640;2024-03-17T09:12:46;101941.97;;;10.95;100.00
74103;BME280;62853;46.166;3.640;2024-03-17T09:15:12;101939.28;;;10.96;100.00
74103;BME280;62853;46.166;3.640;2024-03-17T09:17:38;101943.56;;;10.99;100.00
74103;BME280;62853;46.166;3.640;2024-03-17T09:20:05;101933.88;;;11.00;100.00
74103;BME280;62853;46.166;3.640;2024-03-17T09:22:31;101936.44;;;11.01;100.00
74103;BME280;62853;46.166;3.640;2024-03-17T09:24:56;101937.22;;;11.05;100.00
74103;BME280;62853;46.166;3.640;2024-03-17T09:27:21;101931.84;;;11.06;100.00
74103;BME280;62853;46.166;3.640;2024-03-17T09:29:47;101937.00;;;11.09;100.00
74103;BME280;62853;46.166;3.640;2024-03-17T09:32:13;101930.81;;;11.10;100.00
74103;BME280;62853;46.166;3.640;2024-03-17T09:34:52;101936.94;;;11.11;100.00
74103;BME280;62853;46.166;3.640;2024-03-17T09:37:17;101930.66;;;11.15;100.00
74103;BME280;62853;46.166;3.640;2024-03-17T09:39:42;101928.75;;;11.19;100.00
74103;BME280;62853;46.166;3.640;2024-03-17T09:42:17;101928.56;;;11.23;100.00
74103;BME280;62853;46.166;3.640;2024-03-17T09:44:45;101924.94;;;11.26;100.00
74103;BME280;62853;46.166;3.640;2024-03-17T09:47:18;101933.56;;;11.29;100.00
74103;BME280;62853;46.166;3.640;2024-03-17T09:49:43;101934.25;;;11.34;100.00
74103;BME280;62853;46.166;3.640;2024-03-17T09:52:18;101933.28;;;11.37;100.00
74103;BME280;62853;46.166;3.640;2024-03-17T09:54:44;101931.44;;;11.39;100.00
74103;BME280;62853;46.166;3.640;2024-03-17T09:57:15;101926.94;;;11.41;100.00
74103;BME280;62853;46.166;3.640;2024-03-17T09:59:41;101917.19;;;11.43;100.00
74103;BME280;62853;46.166;3.640;2024-03-17T10:02:16;101928.56;;;11.45;100.00
74103;BME280;62853;46.166;3.640;2024-03-17T10:04:43;101923.22;;;11.47;100.00
74103;BME280;62853;46.166;3.640;2024-03-17T10:07:08;101930.25;;;11.46;100.00
74103;BME280;62853;46.166;3.640;2024-03-17T10:09:33;101931.91;;;11.49;100.00
74103;BME280;62853;46.166;3.640;2024-03-17T10:11:59;101931.97;;;11.47;100.00
74103;BME280;62853;46.166;3.640;2024-03-17T10:14:24;101929.28;;;11.49;100.00
74103;BME280;62853;46.166;3.640;2024-03-17T10:16:50;101923.13;;;11.48;100.00
74103;BME280;62853;46.166;3.640;2024-03-17T10:19:22;101925.63;;;11.51;100.00
74103;BME280;62853;46.166;3.640;2024-03-17T10:21:47;101918.34;;;11.58;100.00
74103;BME280;62853;46.166;3.640;2024-03-17T10:24:20;101905.81;;;11.63;100.00
74103;BME280;62853;46.166;3.640;2024-03-17T10:26:52;101912.69;;;11.67;100.00
74103;BME280;62853;46.166;3.640;2024-03-17T10:29:30;101907.19;;;11.72;100.00
74103;BME280;62853;46.166;3.640;2024-03-17T10:32:02;101908.00;;;11.74;100.00
74103;BME280;62853;46.166;3.640;2024-03-17T10:34:29;101909.63;;;11.77;100.00
74103;BME280;62853;46.166;3.640;2024-03-17T10:37:15;101905.91;;;11.82;100.00
74103;BME280;62853;46.166;3.640;2024-03-17T10:39:45;101901.28;;;11.87;100.00
74103;BME280;62853;46.166;3.640;2024-03-17T10:42:12;101902.88;;;11.91;100.00
74103;BME280;62853;46.166;3.640;2024-03-17T10:44:40;101896.41;;;11.99;100.00
74103;BME280;62853;46.166;3.640;2024-03-17T10:47:07;101898.72;;;12.06;100.00
74103;BME280;62853;46.166;3.640;2024-03-17T10:49:36;101895.72;;;12.14;100.00
74103;BME280;62853;46.166;3.640;2024-03-17T10:52:07;101893.47;;;12.25;100.00
74103;BME280;62853;46.166;3.640;2024-03-17T10:54:34;101900.28;;;12.31;100.00
74103;BME280;62853;46.166;3.640;2024-03-17T10:57:27;101894.63;;;12.39;100.00
74103;BME280;62853;46.166;3.640;2024-03-17T10:59:54;101894.22;;;12.48;100.00
74103;BME280;62853;46.166;3.640;2024-03-17T11:02:23;101892.88;;;12.58;100.00
74103;BME280;62853;46.166;3.640;2024-03-17T11:04:51;101892.50;;;12.66;100.00
74103;BME280;62853;46.166;3.640;2024-03-17T11:07:17;101882.69;;;12.68;100.00
74103;BME280;62853;46.166;3.640;2024-03-17T11:09:45;101884.41;;;12.69;100.00
74103;BME280;62853;46.166;3.640;2024-03-17T11:17:48;101891.94;;;12.78;100.00
74103;BME280;62853;46.166;3.640;2024-03-17T11:20:17;101891.13;;;12.76;100.00
74103;BME280;62853;46.166;3.640;2024-03-17T11:22:49;101895.34;;;12.80;100.00
74103;BME280;62853;46.166;3.640;2024-03-17T11:27:52;101883.91;;;12.80;100.00
74103;BME280;62853;46.166;3.640;2024-03-17T11:30:49;101891.13;;;12.76;100.00
74103;BME280;62853;46.166;3.640;2024-03-17T11:51:56;101871.41;;;12.83;100.00
74103;BME280;62853;46.166;3.640;2024-03-17T11:54:24;101870.47;;;12.84;100.00
74103;BME280;62853;46.166;3.640;2024-03-17T11:56:52;101866.28;;;12.80;100.00
74103;BME280;62853;46.166;3.640;2024-03-17T11:59:18;101859.31;;;12.78;100.00
74103;BME280;62853;46.166;3.640;2024-03-17T12:01:50;101859.41;;;12.76;100.00
74103;BME280;62853;46.166;3.640;2024-03-17T12:04:20;101858.47;;;12.77;100.00
74103;BME280;62853;46.166;3.640;2024-03-17T12:06:47;101844.25;;;12.80;100.00
74103;BME280;62853;46.166;3.640;2024-03-17T12:09:23;101843.41;;;12.79;100.00
74103;BME280;62853;46.166;3.640;2024-03-17T12:11:57;101832.97;;;12.76;100.00
74103;BME280;62853;46.166;3.640;2024-03-17T12:14:23;101833.91;;;12.75;100.00
74103;BME280;62853;46.166;3.640;2024-03-17T12:16:52;101836.63;;;12.74;100.00
74103;BME280;62853;46.166;3.640;2024-03-17T12:19:18;101837.47;;;12.74;100.00
74103;BME280;62853;46.166;3.640;2024-03-17T12:21:49;101826.06;;;12.74;100.00
74103;BME280;62853;46.166;3.640;2024-03-17T12:24:17;101824.97;;;12.78;100.00
74103;BME280;62853;46.166;3.640;2024-03-17T12:26:43;101832.91;;;12.78;100.00
74103;BME280;62853;46.166;3.640;2024-03-17T12:31:59;101815.09;;;12.81;100.00
74103;BME280;62853;46.166;3.640;2024-03-17T12:34:26;101808.03;;;12.82;100.00
74103;BME280;62853;46.166;3.640;2024-03-17T12:36:53;101813.34;;;12.82;100.00
74103;BME280;62853;46.166;3.640;2024-03-17T12:39:23;101809.72;;;12.83;100.00
74103;BME280;62853;46.166;3.640;2024-03-17T12:42:11;101803.53;;;12.84;100.00
74103;BME280;62853;46.166;3.640;2024-03-17T12:44:54;101807.00;;;12.84;100.00
74103;BME280;62853;46.166;3.640;2024-03-17T12:47:27;101807.00;;;12.84;100.00
74103;BME280;62853;46.166;3.640;2024-03-17T12:49:56;101806.94;;;12.86;100.00
74103;BME280;62853;46.166;3.640;2024-03-17T12:52:23;101799.88;;;12.87;100.00
74103;BME280;62853;46.166;3.640;2024-03-17T12:55:06;101800.66;;;12.89;100.00
74103;BME280;62853;46.166;3.640;2024-03-17T13:00:57;101797.00;;;12.91;100.00
74103;BME280;62853;46.166;3.640;2024-03-17T13:03:29;101797.78;;;12.93;100.00
74103;BME280;62853;46.166;3.640;2024-03-17T13:05:54;101787.13;;;12.95;100.00
74103;BME280;62853;46.166;3.640;2024-03-17T13:08:20;101785.34;;;12.95;100.00
74103;BME280;62853;46.166;3.640;2024-03-17T13:10:46;101777.41;;;12.95;100.00
74103;BME280;62853;46.166;3.640;2024-03-17T13:13:12;101780.69;;;13.00;100.00
74103;BME280;62853;46.166;3.640;2024-03-17T13:15:41;101775.31;;;13.02;100.00